createdAt,value
2022-12-16T00:00:49.741Z,4.08
2022-12-16T00:02:47.309Z,4.08
2022-12-16T00:04:47.442Z,4.08
2022-12-16T00:06:46.533Z,4.08
2022-12-16T00:08:47.038Z,4.08
2022-12-16T00:10:47.070Z,4.08
2022-12-16T00:12:46.488Z,4.08
2022-12-16T00:14:46.707Z,4.08
2022-12-16T00:16:47.646Z,4.08
2022-12-16T00:18:46.539Z,4.08
2022-12-16T00:20:47.215Z,4.08
2022-12-16T00:22:46.547Z,4.08
2022-12-16T00:24:46.671Z,4.08
2022-12-16T00:26:47.089Z,4.08
2022-12-16T00:28:46.447Z,4.08
2022-12-16T00:30:46.890Z,4.08
2022-12-16T00:32:46.427Z,4.08
2022-12-16T00:34:46.777Z,4.08
2022-12-16T00:36:46.224Z,4.08
2022-12-16T00:38:46.561Z,4.08
2022-12-16T00:40:46.938Z,4.08
2022-12-16T00:42:46.294Z,4.08
2022-12-16T00:44:46.500Z,4.08
2022-12-16T00:46:47.267Z,4.08
2022-12-16T00:48:46.373Z,4.08
2022-12-16T00:50:46.789Z,4.08
2022-12-16T00:52:47.095Z,4.08
2022-12-16T00:54:46.547Z,4.08
2022-12-16T00:56:46.820Z,4.08
2022-12-16T00:58:47.010Z,4.08
2022-12-16T01:00:49.900Z,4.08
2022-12-16T01:02:48.283Z,4.08
2022-12-16T01:04:46.580Z,4.08
2022-12-16T01:06:46.865Z,4.08
2022-12-16T01:08:47.102Z,4.08
2022-12-16T01:10:46.567Z,4.08
2022-12-16T01:12:46.792Z,4.08
2022-12-16T01:14:47.033Z,4.08
2022-12-16T01:16:46.932Z,4.08
2022-12-16T01:18:46.668Z,4.08
2022-12-16T01:20:46.806Z,4.08
2022-12-16T01:22:47.239Z,4.08
2022-12-16T01:24:46.624Z,4.08
2022-12-16T01:26:46.852Z,4.08
2022-12-16T01:28:47.061Z,4.08
2022-12-16T01:30:46.556Z,4.08
2022-12-16T01:32:47.410Z,4.08
2022-12-16T01:34:51.046Z,4.08
2022-12-16T01:36:46.638Z,4.08
2022-12-16T01:38:47.053Z,4.08
2022-12-16T01:40:46.544Z,4.08
2022-12-16T01:42:46.937Z,4.08
2022-12-16T01:44:47.032Z,4.08
2022-12-16T01:46:46.799Z,4.08
2022-12-16T01:48:46.897Z,4.08
2022-12-16T01:50:47.800Z,4.08
2022-12-16T01:52:46.836Z,4.08
2022-12-16T01:54:47.308Z,4.08
2022-12-16T01:56:46.593Z,4.08
2022-12-16T01:58:46.937Z,4.08
2022-12-16T02:00:49.680Z,4.08
2022-12-16T02:02:47.291Z,4.08
2022-12-16T02:04:46.684Z,4.08
2022-12-16T02:06:46.903Z,4.08
2022-12-16T02:08:46.359Z,4.08
2022-12-16T02:10:46.668Z,4.08
2022-12-16T02:12:47.073Z,4.08
2022-12-16T02:14:46.466Z,4.08
2022-12-16T02:16:51.445Z,4.08
2022-12-16T02:18:46.352Z,4.08
2022-12-16T02:20:46.786Z,4.08
2022-12-16T02:22:46.982Z,4.08
2022-12-16T02:24:46.518Z,4.08
2022-12-16T02:26:46.823Z,4.08
2022-12-16T02:28:46.261Z,4.08
2022-12-16T02:30:46.755Z,4.08
2022-12-16T02:32:46.923Z,4.08
2022-12-16T02:34:47.030Z,4.08
2022-12-16T02:36:47.210Z,4.08
2022-12-16T02:38:46.315Z,4.08
2022-12-16T02:40:46.788Z,4.08
2022-12-16T02:42:47.062Z,4.08
2022-12-16T02:44:46.338Z,4.08
2022-12-16T02:46:47.245Z,4.08
2022-12-16T02:48:47.061Z,4.08
2022-12-16T02:50:46.390Z,4.08
2022-12-16T02:52:46.562Z,4.08
2022-12-16T02:54:46.832Z,4.08
2022-12-16T02:56:47.041Z,4.08
2022-12-16T02:58:46.222Z,4.08
2022-12-16T03:00:47.603Z,4.08
2022-12-16T03:02:48.589Z,4.08
2022-12-16T03:04:46.589Z,4.08
2022-12-16T03:06:46.791Z,4.08
2022-12-16T03:08:47.011Z,4.08
2022-12-16T03:10:47.429Z,4.08
2022-12-16T03:12:46.425Z,4.08
2022-12-16T03:14:46.771Z,4.08
2022-12-16T03:16:47.400Z,4.08
2022-12-16T03:18:47.226Z,4.08
2022-12-16T03:20:46.588Z,4.08
2022-12-16T03:22:46.658Z,4.08
2022-12-16T03:24:47.207Z,4.08
2022-12-16T03:26:46.381Z,4.08
2022-12-16T03:28:46.583Z,4.08
2022-12-16T03:30:47.398Z,4.08
2022-12-16T03:32:46.354Z,4.08
2022-12-16T03:34:46.468Z,4.08
2022-12-16T03:36:46.492Z,4.08
2022-12-16T03:38:46.806Z,4.08
2022-12-16T03:40:47.098Z,4.08
2022-12-16T03:42:46.298Z,4.08
2022-12-16T03:44:46.781Z,4.08
2022-12-16T03:46:47.695Z,4.08
2022-12-16T03:48:47.240Z,4.08
2022-12-16T03:50:46.330Z,4.08
2022-12-16T03:52:46.736Z,4.08
2022-12-16T03:54:46.898Z,4.08
2022-12-16T03:56:47.180Z,4.08
2022-12-16T03:58:46.504Z,4.08
2022-12-16T04:00:50.528Z,4.08
2022-12-16T04:02:48.817Z,4.08
2022-12-16T04:04:46.526Z,4.08
2022-12-16T04:06:46.683Z,4.08
2022-12-16T04:08:47.504Z,4.08
2022-12-16T04:10:46.520Z,4.08
2022-12-16T04:12:46.704Z,4.08
2022-12-16T04:14:51.852Z,4.08
2022-12-16T04:16:47.612Z,4.08
2022-12-16T04:18:46.759Z,4.08
2022-12-16T04:20:47.054Z,4.08
2022-12-16T04:22:46.334Z,4.08
2022-12-16T04:24:46.813Z,4.08
2022-12-16T04:26:47.213Z,4.08
2022-12-16T04:28:46.283Z,4.08
2022-12-16T04:30:46.653Z,4.08
2022-12-16T04:32:46.923Z,4.08
2022-12-16T04:34:46.426Z,4.08
2022-12-16T04:36:46.662Z,4.08
2022-12-16T04:38:47.082Z,4.08
2022-12-16T04:40:46.809Z,4.08
2022-12-16T04:42:47.353Z,4.08
2022-12-16T04:44:47.670Z,4.08
2022-12-16T04:46:47.836Z,4.08
2022-12-16T04:48:46.695Z,4.08
2022-12-16T04:50:46.941Z,4.08
2022-12-16T04:52:46.348Z,4.08
2022-12-16T04:54:46.591Z,4.08
2022-12-16T04:56:49.803Z,4.08
2022-12-16T04:58:47.111Z,4.08
2022-12-16T05:00:49.656Z,4.08
2022-12-16T05:02:47.606Z,4.08
2022-12-16T05:04:46.972Z,4.08
2022-12-16T05:06:47.206Z,4.08
2022-12-16T05:08:46.364Z,4.08
2022-12-16T05:10:46.827Z,4.08
2022-12-16T05:12:47.045Z,4.08
2022-12-16T05:14:46.393Z,4.08
2022-12-16T05:16:47.198Z,4.08
2022-12-16T05:18:47.068Z,4.08
2022-12-16T05:20:46.386Z,4.08
2022-12-16T05:22:46.921Z,4.08
2022-12-16T05:24:51.234Z,4.08
2022-12-16T05:26:46.654Z,4.08
2022-12-16T05:28:47.016Z,4.08
2022-12-16T05:30:51.772Z,4.08
2022-12-16T05:32:46.861Z,4.08
2022-12-16T05:34:46.337Z,4.08
2022-12-16T05:36:46.517Z,4.08
2022-12-16T05:38:46.828Z,4.08
2022-12-16T05:40:47.076Z,4.08
2022-12-16T05:42:46.401Z,4.08
2022-12-16T05:44:46.644Z,4.08
2022-12-16T05:46:48.116Z,4.08
2022-12-16T05:48:47.840Z,4.08
2022-12-16T05:50:46.880Z,4.08
2022-12-16T05:52:47.044Z,4.08
2022-12-16T05:54:46.498Z,4.08
2022-12-16T05:56:46.665Z,4.08
2022-12-16T05:58:46.976Z,4.08
2022-12-16T06:00:50.431Z,4.08
2022-12-16T06:02:47.958Z,4.08
2022-12-16T06:04:51.803Z,4.08
2022-12-16T06:06:47.177Z,4.08
2022-12-16T06:08:46.479Z,4.08
2022-12-16T06:10:46.743Z,4.08
2022-12-16T06:12:47.053Z,4.08
2022-12-16T06:14:47.325Z,4.08
2022-12-16T06:16:54.085Z,4.08
2022-12-16T06:18:47.112Z,4.08
2022-12-16T06:20:47.558Z,4.08
2022-12-16T06:22:46.421Z,4.08
2022-12-16T06:24:46.597Z,4.08
2022-12-16T06:26:47.265Z,4.08
2022-12-16T06:28:47.181Z,4.08
2022-12-16T06:30:46.469Z,4.08
2022-12-16T06:32:47.279Z,4.08
2022-12-16T06:34:47.177Z,4.08
2022-12-16T06:36:46.500Z,4.08
2022-12-16T06:38:46.856Z,4.08
2022-12-16T06:40:47.358Z,4.08
2022-12-16T06:42:46.435Z,4.08
2022-12-16T06:44:46.749Z,4.08
2022-12-16T06:46:47.578Z,4.08
2022-12-16T06:48:46.665Z,4.08
2022-12-16T06:50:46.851Z,4.08
2022-12-16T06:52:46.491Z,4.08
2022-12-16T06:54:46.807Z,4.08
2022-12-16T06:56:46.923Z,4.08
2022-12-16T06:58:48.355Z,4.08
2022-12-16T07:00:49.494Z,4.08
2022-12-16T07:02:48.096Z,4.08
2022-12-16T07:04:46.379Z,4.08
2022-12-16T07:06:46.586Z,4.08
2022-12-16T07:08:47.197Z,4.08
2022-12-16T07:10:46.497Z,4.08
2022-12-16T07:12:46.771Z,4.08
2022-12-16T07:14:47.008Z,4.08
2022-12-16T07:16:47.162Z,4.08
2022-12-16T07:18:46.666Z,4.08
2022-12-16T07:20:46.888Z,4.08
2022-12-16T07:22:47.118Z,4.08
2022-12-16T07:24:46.390Z,4.08
2022-12-16T07:26:46.636Z,4.08
2022-12-16T07:28:49.766Z,4.08
2022-12-16T07:30:46.426Z,4.08
2022-12-16T07:32:46.923Z,4.08
2022-12-16T07:34:52.619Z,4.08
2022-12-16T07:36:47.018Z,4.08
2022-12-16T07:38:47.187Z,4.08
2022-12-16T07:40:46.411Z,4.08
2022-12-16T07:42:46.609Z,4.08
2022-12-16T07:44:46.848Z,4.08
2022-12-16T07:46:47.287Z,4.08
2022-12-16T07:48:47.069Z,4.08
2022-12-16T07:50:47.294Z,4.08
2022-12-16T07:52:46.695Z,4.08
2022-12-16T07:54:46.797Z,4.08
2022-12-16T07:56:47.135Z,4.08
2022-12-16T07:58:46.322Z,4.08
2022-12-16T08:00:50.682Z,4.08
2022-12-16T08:02:47.787Z,4.08
2022-12-16T08:04:46.877Z,4.08
2022-12-16T08:06:51.784Z,4.08
2022-12-16T08:08:46.408Z,4.08
2022-12-16T08:10:46.737Z,4.08
2022-12-16T08:12:47.027Z,4.08
2022-12-16T08:14:46.499Z,4.08
2022-12-16T08:16:47.103Z,4.08
2022-12-16T08:18:46.910Z,4.08
2022-12-16T08:20:47.130Z,4.08
2022-12-16T08:22:46.591Z,4.08
2022-12-16T08:24:51.515Z,4.08
2022-12-16T08:26:47.004Z,4.08
2022-12-16T08:28:47.317Z,4.08
2022-12-16T08:30:46.596Z,4.08
2022-12-16T08:32:47.108Z,4.08
2022-12-16T08:34:47.157Z,4.08
2022-12-16T08:36:46.454Z,4.08
2022-12-16T08:38:48.028Z,4.08
2022-12-16T08:41:19.842Z,4.08
2022-12-16T08:42:47.248Z,4.08
2022-12-16T08:44:46.461Z,4.08
2022-12-16T08:46:47.186Z,4.08
2022-12-16T08:48:46.861Z,4.08
2022-12-16T08:50:47.904Z,4.08
2022-12-16T08:52:46.699Z,4.08
2022-12-16T08:54:46.652Z,4.08
2022-12-16T08:56:46.898Z,4.08
2022-12-16T08:58:46.306Z,4.08
2022-12-16T09:00:49.808Z,4.08
2022-12-16T09:02:48.570Z,4.08
2022-12-16T09:04:47.330Z,4.08
2022-12-16T09:06:52.018Z,4.08
2022-12-16T09:08:46.926Z,4.08
2022-12-16T09:10:51.876Z,4.08
2022-12-16T09:12:46.811Z,4.08
2022-12-16T09:14:46.959Z,4.08
2022-12-16T09:16:53.456Z,4.08
2022-12-16T09:18:46.620Z,4.08
2022-12-16T09:20:46.818Z,4.08
2022-12-16T09:22:47.125Z,4.08
2022-12-16T09:24:46.411Z,4.08
2022-12-16T09:26:47.047Z,4.08
2022-12-16T09:28:47.040Z,4.08
2022-12-16T09:30:46.626Z,4.08
2022-12-16T09:32:46.649Z,4.08
2022-12-16T09:34:46.937Z,4.08
2022-12-16T09:36:47.005Z,4.08
2022-12-16T09:38:46.495Z,4.08
2022-12-16T09:40:46.663Z,4.08
2022-12-16T09:42:46.826Z,4.08
2022-12-16T09:44:47.153Z,4.08
2022-12-16T09:46:47.008Z,4.08
2022-12-16T09:48:46.788Z,4.08
2022-12-16T09:50:47.228Z,4.08
2022-12-16T09:52:52.416Z,4.08
2022-12-16T09:54:46.711Z,4.08
2022-12-16T09:56:47.049Z,4.08
2022-12-16T09:58:46.610Z,4.08
2022-12-16T10:00:52.443Z,4.08
2022-12-16T10:02:48.504Z,4.08
2022-12-16T10:04:46.885Z,4.08
2022-12-16T10:06:47.218Z,4.08
2022-12-16T10:08:52.856Z,4.08
2022-12-16T10:10:46.657Z,4.08
2022-12-16T10:12:46.844Z,4.08
2022-12-16T10:14:53.182Z,4.08
2022-12-16T10:16:47.768Z,4.08
2022-12-16T10:18:47.063Z,4.08
2022-12-16T10:20:54.340Z,4.08
2022-12-16T10:22:47.079Z,4.08
2022-12-16T10:24:47.203Z,4.08
2022-12-16T10:26:46.442Z,4.08
2022-12-16T10:28:47.061Z,4.08
2022-12-16T10:30:46.485Z,4.08
2022-12-16T10:32:46.686Z,4.08
2022-12-16T10:34:47.004Z,4.08
2022-12-16T10:36:47.336Z,4.08
2022-12-16T10:38:46.558Z,4.08
2022-12-16T10:40:46.757Z,4.08
2022-12-16T10:42:47.255Z,4.08
2022-12-16T10:44:46.446Z,4.08
2022-12-16T10:46:47.190Z,4.08
2022-12-16T10:48:56.282Z,4.08
2022-12-16T10:50:47.118Z,4.08
2022-12-16T10:52:54.158Z,4.08
2022-12-16T10:54:47.132Z,4.08
2022-12-16T10:56:46.416Z,4.08
2022-12-16T10:58:47.176Z,10.3
2022-12-16T11:00:49.837Z,10.3
2022-12-16T11:02:48.205Z,10.3
2022-12-16T11:04:47.029Z,0.74
2022-12-16T11:06:47.299Z,0.74
2022-12-16T11:08:46.325Z,0.74
2022-12-16T11:10:46.672Z,0.48
2022-12-16T11:12:46.883Z,0.48
2022-12-16T11:14:59.524Z,0.48
2022-12-16T11:16:46.990Z,0.44
2022-12-16T11:18:46.480Z,0.44
2022-12-16T11:20:46.860Z,0.44
2022-12-16T11:22:47.113Z,0.44
2022-12-16T11:24:46.228Z,0.44
2022-12-16T11:26:49.076Z,0.44
2022-12-16T11:28:47.011Z,0.44
2022-12-16T11:30:46.305Z,0.44
2022-12-16T11:32:46.640Z,0.44
2022-12-16T11:34:47.127Z,0.44
2022-12-16T11:36:46.485Z,0.39
2022-12-16T11:38:46.811Z,0.39
2022-12-16T11:40:47.189Z,0.39
2022-12-16T11:42:46.605Z,0.39
2022-12-16T11:44:47.115Z,0.39
2022-12-16T11:46:46.729Z,0.39
2022-12-16T11:48:46.667Z,0.39
2022-12-16T11:50:47.137Z,0.39
2022-12-16T11:53:20.876Z,0.39
2022-12-16T11:54:46.578Z,0.39
2022-12-16T11:57:01.242Z,0.39
2022-12-16T11:58:46.541Z,0.34
2022-12-16T12:00:50.515Z,0.34
2022-12-16T12:02:47.071Z,0.34
2022-12-16T12:04:47.570Z,0.34
2022-12-16T12:06:46.980Z,0.34
2022-12-16T12:08:47.006Z,0.34
2022-12-16T12:10:46.504Z,0.39
2022-12-16T12:12:46.851Z,0.39
2022-12-16T12:14:47.494Z,0.39
2022-12-16T12:16:47.533Z,0.34
2022-12-16T12:18:47.543Z,0.34
2022-12-16T12:20:47.208Z,0.34
2022-12-16T12:22:46.475Z,0.39
2022-12-16T12:24:46.771Z,0.39
2022-12-16T12:26:47.203Z,0.39
2022-12-16T12:28:46.576Z,0.39
2022-12-16T12:30:50.508Z,0.39
2022-12-16T12:32:46.973Z,0.39
2022-12-16T12:34:47.207Z,0.34
2022-12-16T12:36:49.567Z,0.34
2022-12-16T12:38:46.886Z,0.34
2022-12-16T12:40:47.174Z,0.34
2022-12-16T12:42:49.587Z,0.34
2022-12-16T12:44:59.695Z,0.34
2022-12-16T12:46:47.763Z,0.34
2022-12-16T12:48:46.631Z,0.34
2022-12-16T12:50:47.211Z,0.34
2022-12-16T12:52:47.174Z,0.34
2022-12-16T12:54:51.324Z,0.34
2022-12-16T12:56:46.837Z,0.34
2022-12-16T12:58:46.939Z,0.34
2022-12-16T13:00:49.953Z,0.34
2022-12-16T13:02:48.011Z,0.34
2022-12-16T13:04:47.249Z,0.34
2022-12-16T13:06:47.153Z,0.34
2022-12-16T13:08:46.381Z,0.34
2022-12-16T13:10:47.179Z,0.34
2022-12-16T13:12:47.094Z,0.34
2022-12-16T13:14:47.057Z,0.34
2022-12-16T13:16:46.748Z,0.34
2022-12-16T13:18:46.709Z,0.34
2022-12-16T13:20:46.940Z,0.34
2022-12-16T13:22:47.045Z,0.34
2022-12-16T13:24:47.219Z,0.34
2022-12-16T13:26:46.484Z,0.34
2022-12-16T13:28:47.013Z,0.34
2022-12-16T13:30:47.495Z,0.34
2022-12-16T13:32:46.795Z,0.34
2022-12-16T13:34:46.820Z,0.34
2022-12-16T13:36:47.095Z,0.34
2022-12-16T13:38:46.841Z,0.34
2022-12-16T13:40:47.133Z,0.34
2022-12-16T13:42:46.447Z,0.34
2022-12-16T13:44:46.695Z,0.34
2022-12-16T13:46:47.276Z,0.34
2022-12-16T13:48:47.343Z,0.34
2022-12-16T13:50:46.552Z,0.34
2022-12-16T13:52:46.927Z,0.34
2022-12-16T13:54:47.315Z,0.34
2022-12-16T13:56:46.522Z,0.34
2022-12-16T13:58:46.993Z,0.34
2022-12-16T14:00:55.932Z,0.34
2022-12-16T14:02:48.206Z,0.34
2022-12-16T14:04:46.708Z,0.34
2022-12-16T14:06:46.988Z,0.34
2022-12-16T14:08:46.667Z,0.34
2022-12-16T14:10:46.963Z,0.34
2022-12-16T14:12:49.563Z,0.34
2022-12-16T14:14:46.426Z,0.34
2022-12-16T14:16:47.156Z,0.34
2022-12-16T14:18:54.617Z,0.34
2022-12-16T14:20:47.233Z,0.34
2022-12-16T14:22:46.503Z,0.34
2022-12-16T14:24:47.650Z,0.34
2022-12-16T14:26:46.490Z,0.34
2022-12-16T14:28:46.987Z,0.34
2022-12-16T14:30:47.210Z,0.34
2022-12-16T14:32:46.526Z,0.34
2022-12-16T14:34:46.436Z,0.34
2022-12-16T14:36:46.884Z,0.34
2022-12-16T14:38:47.113Z,0.34
2022-12-16T14:40:46.499Z,0.34
2022-12-16T14:42:46.782Z,0.34
2022-12-16T14:44:47.132Z,0.34
2022-12-16T14:46:46.801Z,0.34
2022-12-16T14:48:49.872Z,0.34
2022-12-16T14:50:47.014Z,0.34
2022-12-16T14:52:47.234Z,0.34
2022-12-16T14:54:46.674Z,0.34
2022-12-16T14:56:46.958Z,0.3
2022-12-16T14:58:47.244Z,0.3
2022-12-16T15:00:50.247Z,0.34
2022-12-16T15:02:49.272Z,0.34
2022-12-16T15:04:48.405Z,0.34
2022-12-16T15:06:46.771Z,0.34
2022-12-16T15:08:47.909Z,0.34
2022-12-16T15:10:47.243Z,0.34
2022-12-16T15:12:46.471Z,0.34
2022-12-16T15:14:49.095Z,0.34
2022-12-16T15:16:47.650Z,0.34
2022-12-16T15:20:49.071Z,0.34
2022-12-16T15:24:47.263Z,0.34
2022-12-16T15:28:46.742Z,0.34
2022-12-16T15:32:48.881Z,0.34
2022-12-16T15:36:46.961Z,0.34
2022-12-16T15:40:46.628Z,0.34
2022-12-16T15:44:46.575Z,0.34
2022-12-16T15:48:47.060Z,0.34
2022-12-16T15:52:46.691Z,0.34
2022-12-16T15:56:50.392Z,0.34
2022-12-16T16:00:49.928Z,0.3
2022-12-16T16:04:47.366Z,0.34
2022-12-16T16:08:50.943Z,0.3
2022-12-16T16:12:46.463Z,0.3
2022-12-16T16:16:47.599Z,0.3
2022-12-16T16:20:49.227Z,0.3
2022-12-16T16:24:46.282Z,0.3
2022-12-16T16:28:47.197Z,0.34
2022-12-16T16:32:49.674Z,0.34
2022-12-16T16:36:46.682Z,0.34
2022-12-16T16:40:46.381Z,0.3
2022-12-16T16:44:53.298Z,0.3
2022-12-16T16:48:46.934Z,0.3
2022-12-16T16:52:46.564Z,0.3
2022-12-16T16:56:53.894Z,0.3
2022-12-16T17:00:50.339Z,0.3
2022-12-16T17:04:47.740Z,0.3
2022-12-16T17:08:46.721Z,0.3
2022-12-16T17:12:46.302Z,0.3
2022-12-16T17:16:47.402Z,0.3
2022-12-16T17:20:47.090Z,0.3
2022-12-16T17:24:50.343Z,0.3
2022-12-16T17:28:46.993Z,0.3
2022-12-16T17:32:46.725Z,0.3
2022-12-16T17:36:54.042Z,0.3
2022-12-16T17:40:47.089Z,0.3
2022-12-16T17:44:46.834Z,0.3
2022-12-16T17:48:46.413Z,0.3
2022-12-16T17:52:47.213Z,0.3
2022-12-16T17:56:46.333Z,0.3
2022-12-16T18:00:51.469Z,0.3
2022-12-16T18:04:47.604Z,0.3
2022-12-16T18:08:47.236Z,0.3
2022-12-16T18:12:46.826Z,0.3
2022-12-16T18:16:47.003Z,0.3
2022-12-16T18:20:47.113Z,0.3
2022-12-16T18:24:48.600Z,0.3
2022-12-16T18:28:47.250Z,0.3
2022-12-16T18:32:46.912Z,0.3
2022-12-16T18:36:46.436Z,0.3
2022-12-16T18:40:46.941Z,0.3
2022-12-16T18:44:46.667Z,0.3
2022-12-16T18:48:47.151Z,0.3
2022-12-16T18:52:46.896Z,0.3
2022-12-16T18:56:46.496Z,0.3
2022-12-16T19:00:50.171Z,0.3
2022-12-16T19:04:46.928Z,0.3
2022-12-16T19:08:48.463Z,0.3
2022-12-16T19:12:47.205Z,0.3
2022-12-16T19:16:47.288Z,0.3
2022-12-16T19:20:51.110Z,0.3
2022-12-16T19:24:47.302Z,0.3
2022-12-16T19:28:46.456Z,0.3
2022-12-16T19:32:47.201Z,0.3
2022-12-16T19:40:47.562Z,0.3
2022-12-16T19:44:51.229Z,0.3
2022-12-16T19:48:46.564Z,0.3
2022-12-16T19:52:47.272Z,0.3
2022-12-16T19:56:46.709Z,0.3
2022-12-16T20:00:50.065Z,0.3
2022-12-16T20:04:46.689Z,0.3
2022-12-16T20:08:47.226Z,0.3
2022-12-16T20:12:46.546Z,0.3
2022-12-16T20:16:47.278Z,0.34
2022-12-16T20:20:46.712Z,0.34
2022-12-16T20:24:46.514Z,0.3
2022-12-16T20:28:47.692Z,0.3
2022-12-16T20:32:46.338Z,0.3
2022-12-16T20:36:47.094Z,0.3
2022-12-16T20:40:46.864Z,0.3
2022-12-16T20:44:46.493Z,0.3
2022-12-16T20:48:47.293Z,0.34
2022-12-16T20:52:46.868Z,0.34
2022-12-16T20:56:46.607Z,0.34
2022-12-16T21:00:51.237Z,0.34
2022-12-16T21:04:46.476Z,0.34
2022-12-16T21:08:47.229Z,0.34
2022-12-16T21:12:47.022Z,0.34
2022-12-16T21:16:46.771Z,0.34
2022-12-16T21:20:46.330Z,0.34
2022-12-16T21:24:47.092Z,0.34
2022-12-16T21:28:47.131Z,0.34
2022-12-16T21:32:53.933Z,0.34
2022-12-16T21:36:46.478Z,0.34
2022-12-16T21:40:47.272Z,0.34
2022-12-16T21:44:47.196Z,0.34
2022-12-16T21:48:47.215Z,0.34
2022-12-16T21:52:46.596Z,0.34
2022-12-16T21:56:46.446Z,0.34
2022-12-16T22:00:53.496Z,0.34
2022-12-16T22:04:47.131Z,0.34
2022-12-16T22:08:46.712Z,0.34
2022-12-16T22:12:46.593Z,0.34
2022-12-16T22:16:47.982Z,0.34
2022-12-16T22:20:46.648Z,0.34
2022-12-16T22:24:47.340Z,0.34
2022-12-16T22:28:46.934Z,0.34
2022-12-16T22:32:46.772Z,0.34
2022-12-16T22:36:20.162Z,0.3
2022-12-16T22:36:47.211Z,0.34
2022-12-16T22:38:46.775Z,0.34
2022-12-16T22:40:47.137Z,0.34
2022-12-16T22:44:46.886Z,0.34
2022-12-16T22:48:46.624Z,0.34
2022-12-16T22:52:46.273Z,0.34
2022-12-16T22:56:47.486Z,0.34
2022-12-16T23:00:52.118Z,0.34
2022-12-16T23:04:47.392Z,0.34
2022-12-16T23:08:46.872Z,0.34
2022-12-16T23:12:46.632Z,0.34
2022-12-16T23:16:47.323Z,0.34
2022-12-16T23:20:46.887Z,0.34
2022-12-16T23:24:46.664Z,0.34
2022-12-16T23:28:46.983Z,0.34
2022-12-16T23:32:46.794Z,0.34
2022-12-16T23:34:48.903Z,0.34
2022-12-16T23:36:47.191Z,0.34
2022-12-16T23:38:46.269Z,0.34
2022-12-16T23:40:46.682Z,0.34
2022-12-16T23:42:47.029Z,0.34
2022-12-16T23:44:49.771Z,0.34
2022-12-16T23:46:46.974Z,0.34
2022-12-16T23:48:46.984Z,0.34
2022-12-16T23:50:49.899Z,0.34
2022-12-16T23:52:46.584Z,0.34
2022-12-16T23:54:46.878Z,0.34
2022-12-16T23:56:47.280Z,0.34
2022-12-16T23:58:46.575Z,0.34
